createdAt,value
2018-12-14T00:01:27.681Z,11.63
2018-12-14T00:03:55.841Z,11.93
2018-12-14T00:06:23.957Z,13.20
2018-12-14T00:08:52.194Z,13.47
2018-12-14T00:11:20.313Z,14.20
2018-12-14T00:13:48.476Z,13.30
2018-12-14T00:16:16.637Z,13.73
2018-12-14T00:18:44.739Z,13.87
2018-12-14T00:21:12.873Z,13.07
2018-12-14T00:23:41.013Z,14.33
2018-12-14T00:26:09.236Z,13.67
2018-12-14T00:28:37.371Z,13.33
2018-12-14T00:31:05.577Z,14.57
2018-12-14T00:33:33.723Z,13.67
2018-12-14T00:36:01.838Z,14.47
2018-12-14T00:38:30.055Z,13.77
2018-12-14T00:40:58.170Z,14.73
2018-12-14T00:43:26.325Z,15.33
2018-12-14T00:45:54.434Z,14.83
2018-12-14T00:48:22.565Z,15.57
2018-12-14T00:50:50.720Z,15.40
2018-12-14T00:53:18.881Z,15.67
2018-12-14T00:55:46.993Z,16.13
2018-12-14T00:58:15.102Z,15.97
2018-12-14T01:00:43.269Z,15.17
2018-12-14T01:03:11.387Z,14.50
2018-12-14T01:05:39.513Z,14.53
2018-12-14T01:08:07.629Z,15.77
2018-12-14T01:10:35.762Z,13.73
2018-12-14T01:13:03.918Z,15.47
2018-12-14T01:15:32.086Z,14.10
2018-12-14T01:18:00.225Z,14.67
2018-12-14T01:20:28.366Z,14.17
2018-12-14T01:22:56.528Z,13.57
2018-12-14T01:25:24.646Z,14.30
2018-12-14T01:27:52.768Z,12.90
2018-12-14T01:30:20.925Z,13.73
2018-12-14T01:32:49.070Z,13.83
2018-12-14T01:35:17.225Z,14.47
2018-12-14T01:37:45.342Z,13.57
2018-12-14T01:40:13.595Z,14.17
2018-12-14T01:42:41.730Z,13.00
2018-12-14T01:45:09.834Z,13.77
2018-12-14T01:47:38.022Z,13.47
2018-12-14T01:50:06.414Z,12.67
2018-12-14T01:52:34.789Z,12.47
2018-12-14T01:55:03.015Z,12.23
2018-12-14T01:57:31.205Z,12.97
2018-12-14T01:59:59.342Z,13.67
2018-12-14T02:02:27.481Z,12.97
2018-12-14T02:04:55.626Z,13.53
2018-12-14T02:07:23.767Z,13.00
2018-12-14T02:09:51.909Z,13.23
2018-12-14T02:12:20.042Z,12.83
2018-12-14T02:14:48.187Z,13.37
2018-12-14T02:17:16.314Z,12.93
2018-12-14T02:19:44.545Z,13.53
2018-12-14T02:22:12.681Z,13.93
2018-12-14T02:24:40.823Z,12.60
2018-12-14T02:27:08.934Z,13.37
2018-12-14T02:29:37.097Z,14.07
2018-12-14T02:32:05.601Z,14.00
2018-12-14T02:34:33.718Z,13.40
2018-12-14T02:37:01.853Z,12.33
2018-12-14T02:39:29.985Z,13.00
2018-12-14T02:41:58.100Z,12.97
2018-12-14T02:44:26.242Z,12.63
2018-12-14T02:46:54.382Z,12.40
2018-12-14T02:49:22.498Z,12.27
2018-12-14T02:51:50.685Z,12.77
2018-12-14T02:54:18.866Z,12.40
2018-12-14T02:56:47.011Z,13.47
2018-12-14T02:59:15.251Z,13.40
2018-12-14T03:01:43.393Z,13.23
2018-12-14T03:04:11.498Z,13.27
2018-12-14T03:06:39.649Z,13.13
2018-12-14T03:09:07.974Z,14.17
2018-12-14T03:11:36.111Z,13.77
2018-12-14T03:14:04.458Z,13.43
2018-12-14T03:16:32.564Z,12.97
2018-12-14T03:19:00.671Z,13.93
2018-12-14T03:21:28.810Z,13.07
2018-12-14T03:23:56.979Z,13.67
2018-12-14T03:26:25.102Z,13.47
2018-12-14T03:28:53.209Z,13.60
2018-12-14T03:31:21.348Z,13.27
2018-12-14T03:33:49.465Z,14.07
2018-12-14T03:36:17.699Z,13.87
2018-12-14T03:38:45.806Z,13.53
2018-12-14T03:41:13.968Z,14.37
2018-12-14T03:43:42.107Z,14.73
2018-12-14T03:46:10.227Z,13.80
2018-12-14T03:48:38.474Z,14.10
2018-12-14T03:51:06.678Z,14.97
2018-12-14T03:53:34.793Z,14.63
2018-12-14T03:56:02.930Z,14.83
2018-12-14T03:58:31.038Z,15.40
2018-12-14T04:00:59.165Z,15.27
2018-12-14T04:03:27.336Z,15.07
2018-12-14T04:05:55.478Z,14.87
2018-12-14T04:08:23.585Z,15.47
2018-12-14T04:10:51.718Z,16.73
2018-12-14T04:13:19.858Z,15.67
2018-12-14T04:15:48.006Z,15.27
2018-12-14T04:18:16.134Z,16.07
2018-12-14T04:20:44.243Z,14.77
2018-12-14T04:23:12.365Z,15.63
2018-12-14T04:25:40.492Z,17.00
2018-12-14T04:28:08.606Z,17.03
2018-12-14T04:30:36.776Z,16.37
2018-12-14T04:33:04.922Z,15.63
2018-12-14T04:35:33.057Z,16.67
2018-12-14T04:38:01.201Z,17.23
2018-12-14T04:40:29.354Z,16.77
2018-12-14T04:42:57.515Z,17.73
2018-12-14T04:45:25.637Z,18.47
2018-12-14T04:47:53.741Z,17.80
2018-12-14T04:50:21.875Z,17.53
2018-12-14T04:52:49.991Z,18.50
2018-12-14T04:55:18.226Z,18.47
2018-12-14T04:57:46.342Z,17.83
2018-12-14T05:00:14.650Z,19.53
2018-12-14T05:02:42.777Z,18.27
2018-12-14T05:05:10.893Z,22.37
2018-12-14T05:07:39.073Z,20.13
2018-12-14T05:10:07.273Z,20.20
2018-12-14T05:12:35.425Z,20.73
2018-12-14T05:15:04.506Z,19.23
2018-12-14T05:17:32.622Z,17.57
2018-12-14T05:20:00.733Z,19.07
2018-12-14T05:22:28.865Z,18.93
2018-12-14T05:24:57.053Z,18.93
2018-12-14T05:27:25.365Z,19.97
2018-12-14T05:29:53.899Z,18.60
2018-12-14T05:32:22.040Z,18.40
2018-12-14T05:34:50.143Z,17.83
2018-12-14T05:37:18.373Z,20.27
2018-12-14T05:39:46.514Z,18.67
2018-12-14T05:42:14.624Z,20.23
2018-12-14T05:44:42.789Z,18.80
2018-12-14T05:47:11.012Z,19.87
2018-12-14T05:49:39.121Z,19.43
2018-12-14T05:52:07.229Z,19.40
2018-12-14T05:54:35.394Z,18.67
2018-12-14T05:57:03.501Z,18.60
2018-12-14T05:59:31.637Z,20.00
2018-12-14T06:01:59.862Z,19.47
2018-12-14T06:04:27.978Z,20.40
2018-12-14T06:06:56.271Z,19.13
2018-12-14T06:09:24.408Z,19.90
2018-12-14T06:11:52.544Z,19.43
2018-12-14T06:14:20.684Z,19.50
2018-12-14T06:16:48.817Z,19.87
2018-12-14T06:19:16.959Z,18.00
2018-12-14T06:21:45.106Z,19.07
2018-12-14T06:24:13.268Z,18.17
2018-12-14T06:26:41.385Z,17.53
2018-12-14T06:29:09.528Z,18.87
2018-12-14T06:31:37.628Z,17.13
2018-12-14T06:34:05.761Z,17.53
2018-12-14T06:36:33.873Z,17.27
2018-12-14T06:39:02.011Z,16.93
2018-12-14T06:41:30.121Z,17.30
2018-12-14T06:43:58.285Z,18.67
2018-12-14T06:46:26.401Z,17.80
2018-12-14T06:48:54.509Z,17.70
2018-12-14T06:51:22.670Z,15.77
2018-12-14T06:53:50.879Z,16.23
2018-12-14T06:56:19.047Z,16.10
2018-12-14T06:58:47.181Z,16.67
2018-12-14T07:01:15.345Z,15.83
2018-12-14T07:03:43.466Z,17.97
2018-12-14T07:06:11.608Z,17.80
2018-12-14T07:08:39.885Z,17.13
2018-12-14T07:11:08.025Z,15.63
2018-12-14T07:13:36.178Z,17.33
2018-12-14T07:16:04.290Z,18.60
2018-12-14T07:18:32.447Z,17.00
2018-12-14T07:21:00.580Z,17.20
2018-12-14T07:23:28.760Z,16.37
2018-12-14T07:25:57.003Z,17.37
2018-12-14T07:28:25.153Z,18.07
2018-12-14T07:30:53.284Z,17.60
2018-12-14T07:33:21.414Z,17.63
2018-12-14T07:35:49.554Z,19.20
2018-12-14T07:38:17.685Z,17.27
2018-12-14T07:40:45.795Z,18.53
2018-12-14T07:43:13.924Z,16.50
2018-12-14T07:45:42.043Z,17.23
2018-12-14T07:48:10.173Z,17.10
2018-12-14T07:50:38.329Z,15.97
2018-12-14T07:53:09.218Z,15.10
2018-12-14T07:55:36.680Z,15.60
2018-12-14T07:58:04.810Z,15.23
2018-12-14T08:00:32.980Z,15.20
2018-12-14T08:03:01.097Z,15.10
2018-12-14T08:05:29.255Z,15.70
2018-12-14T08:07:57.494Z,14.77
2018-12-14T08:10:25.945Z,15.20
2018-12-14T08:12:54.713Z,13.80
2018-12-14T08:15:23.221Z,14.07
2018-12-14T08:17:51.354Z,15.00
2018-12-14T08:20:19.565Z,13.80
2018-12-14T08:22:47.722Z,14.13
2018-12-14T08:25:15.834Z,13.97
2018-12-14T08:27:43.941Z,12.67
2018-12-14T08:30:12.074Z,14.87
2018-12-14T08:32:40.210Z,12.97
2018-12-14T08:35:08.346Z,14.13
2018-12-14T08:37:36.481Z,13.63
2018-12-14T08:40:06.181Z,13.73
2018-12-14T08:42:34.321Z,13.93
2018-12-14T08:45:02.546Z,13.40
2018-12-14T08:47:30.716Z,13.73
2018-12-14T08:49:58.864Z,12.63
2018-12-14T08:52:27.017Z,13.47
2018-12-14T08:54:55.145Z,13.90
2018-12-14T08:57:23.301Z,13.27
2018-12-14T08:59:51.454Z,14.03
2018-12-14T09:02:19.617Z,14.43
2018-12-14T09:04:47.729Z,12.80
2018-12-14T09:07:16.137Z,13.43
2018-12-14T09:09:44.293Z,13.20
2018-12-14T09:12:12.437Z,13.10
2018-12-14T09:14:40.674Z,12.40
2018-12-14T09:17:08.788Z,12.23
2018-12-14T09:19:36.927Z,12.20
2018-12-14T09:22:05.056Z,11.30
2018-12-14T09:24:33.234Z,12.10
2018-12-14T09:27:01.357Z,12.37
2018-12-14T09:29:29.493Z,13.03
2018-12-14T09:31:57.825Z,12.37
2018-12-14T09:34:25.937Z,11.77
2018-12-14T09:36:54.073Z,11.67
2018-12-14T09:39:22.206Z,13.10
2018-12-14T09:41:50.332Z,12.97
2018-12-14T09:44:18.446Z,12.90
2018-12-14T09:46:47.265Z,11.93
2018-12-14T09:49:16.028Z,13.07
2018-12-14T09:51:49.581Z,13.27
2018-12-14T09:54:17.739Z,11.53
2018-12-14T09:56:45.859Z,12.33
2018-12-14T09:59:14.060Z,12.70
2018-12-14T10:01:42.164Z,12.20
2018-12-14T10:04:10.282Z,12.30
2018-12-14T10:06:38.415Z,11.80
2018-12-14T10:09:06.663Z,12.23
2018-12-14T10:11:37.005Z,11.83
2018-12-14T10:14:05.188Z,11.67
2018-12-14T10:16:33.385Z,11.30
2018-12-14T10:19:01.790Z,12.00
2018-12-14T10:21:29.944Z,12.13
2018-12-14T10:23:58.045Z,10.83
2018-12-14T10:26:26.200Z,12.23
2018-12-14T10:28:54.361Z,11.43
2018-12-14T10:31:22.517Z,12.07
2018-12-14T10:33:50.622Z,11.73
2018-12-14T10:36:18.774Z,10.97
2018-12-14T10:38:46.918Z,11.50
2018-12-14T10:41:15.055Z,10.80
2018-12-14T10:43:43.189Z,10.37
2018-12-14T10:46:11.354Z,9.43
2018-12-14T10:48:39.466Z,10.93
2018-12-14T10:51:07.588Z,9.87
2018-12-14T10:53:35.849Z,9.87
2018-12-14T10:56:03.960Z,9.60
2018-12-14T10:58:32.108Z,11.53
2018-12-14T11:01:06.029Z,10.90
2018-12-14T11:03:34.165Z,10.77
2018-12-14T11:06:02.280Z,10.90
2018-12-14T11:08:30.409Z,10.20
2018-12-14T11:10:58.521Z,10.13
2018-12-14T11:13:26.693Z,10.13
2018-12-14T11:15:54.805Z,11.27
2018-12-14T11:18:22.923Z,10.17
2018-12-14T11:20:51.255Z,10.10
2018-12-14T11:23:19.385Z,9.77
2018-12-14T11:25:47.502Z,9.97
2018-12-14T11:28:15.704Z,10.33
2018-12-14T11:30:43.814Z,10.27
2018-12-14T11:33:12.877Z,10.37
2018-12-14T11:35:41.013Z,9.23
2018-12-14T11:38:09.166Z,9.60
2018-12-14T11:40:37.305Z,9.83
2018-12-14T11:43:05.475Z,8.80
2018-12-14T11:45:33.586Z,9.63
2018-12-14T11:48:01.686Z,9.27
2018-12-14T11:50:29.851Z,9.20
2018-12-14T11:52:57.946Z,9.07
2018-12-14T11:55:26.221Z,9.23
2018-12-14T11:57:54.327Z,8.63
2018-12-14T12:00:22.539Z,9.07
2018-12-14T12:02:50.675Z,9.30
2018-12-14T12:05:18.834Z,8.23
2018-12-14T12:07:47.171Z,9.73
2018-12-14T12:10:15.334Z,9.77
2018-12-14T12:12:43.450Z,9.10
2018-12-14T12:15:11.692Z,9.13
2018-12-14T12:17:40.489Z,9.03
2018-12-14T12:20:08.708Z,7.70
2018-12-14T12:22:36.848Z,9.13
2018-12-14T12:25:05.063Z,9.83
2018-12-14T12:27:33.198Z,8.43
2018-12-14T12:30:01.295Z,9.10
2018-12-14T12:32:29.520Z,8.40
2018-12-14T12:34:57.636Z,8.43
2018-12-14T12:37:25.742Z,8.80
2018-12-14T12:39:53.896Z,8.97
2018-12-14T12:42:22.054Z,9.57
2018-12-14T12:44:50.297Z,8.17
2018-12-14T12:47:18.401Z,9.10
2018-12-14T12:49:46.562Z,8.33
2018-12-14T12:52:14.721Z,9.03
2018-12-14T12:54:42.877Z,8.00
2018-12-14T12:57:11.015Z,9.13
2018-12-14T12:59:39.226Z,8.70
2018-12-14T13:02:07.385Z,7.77
2018-12-14T13:04:35.692Z,8.53
2018-12-14T13:07:03.922Z,8.83
2018-12-14T13:09:32.040Z,8.47
2018-12-14T13:12:00.192Z,8.67
2018-12-14T13:14:28.353Z,9.00
2018-12-14T13:16:57.472Z,8.57
2018-12-14T13:19:25.654Z,8.70
2018-12-14T13:21:53.769Z,8.47
2018-12-14T13:24:21.901Z,8.37
2018-12-14T13:26:50.026Z,9.47
2018-12-14T13:29:18.181Z,8.93
2018-12-14T13:31:46.284Z,9.03
2018-12-14T13:34:14.525Z,9.23
2018-12-14T13:36:42.761Z,8.97
2018-12-14T13:39:10.932Z,9.33
2018-12-14T13:41:39.184Z,9.60
2018-12-14T13:44:07.328Z,9.37
2018-12-14T13:46:35.438Z,10.43
2018-12-14T13:49:03.634Z,10.27
2018-12-14T13:51:31.866Z,9.70
2018-12-14T13:53:59.978Z,10.10
2018-12-14T13:56:28.110Z,9.73
2018-12-14T13:58:56.282Z,9.53
2018-12-14T14:01:24.830Z,10.10
2018-12-14T14:03:52.964Z,10.37
2018-12-14T14:06:21.111Z,9.67
2018-12-14T14:08:52.263Z,9.87
2018-12-14T14:11:20.370Z,10.77
2018-12-14T14:13:48.485Z,10.60
2018-12-14T14:16:16.758Z,9.67
2018-12-14T14:18:44.925Z,10.33
2018-12-14T14:21:13.055Z,9.70
2018-12-14T14:23:41.166Z,10.87
2018-12-14T14:26:09.730Z,11.80
2018-12-14T14:28:37.848Z,12.00
2018-12-14T14:31:06.014Z,11.90
2018-12-14T14:33:34.125Z,12.00
2018-12-14T14:36:02.402Z,13.10
2018-12-14T14:38:30.585Z,13.27
2018-12-14T14:40:58.741Z,13.53
2018-12-14T14:43:26.906Z,12.27
2018-12-14T14:45:55.041Z,12.90
2018-12-14T14:48:23.169Z,12.07
2018-12-14T14:50:51.326Z,13.43
2018-12-14T14:53:19.473Z,12.13
2018-12-14T14:55:47.588Z,13.17
2018-12-14T14:58:15.820Z,12.70
2018-12-14T15:00:44.077Z,13.70
2018-12-14T15:03:12.353Z,13.47
2018-12-14T15:05:40.526Z,11.90
2018-12-14T15:08:08.772Z,11.97
2018-12-14T15:10:36.887Z,11.20
2018-12-14T15:13:05.029Z,11.17
2018-12-14T15:15:33.273Z,12.50
2018-12-14T15:18:01.410Z,11.10
2018-12-14T15:20:29.599Z,11.83
2018-12-14T15:22:57.765Z,12.17
2018-12-14T15:25:25.906Z,12.53
2018-12-14T15:27:54.054Z,11.60
2018-12-14T15:30:22.165Z,11.57
2018-12-14T15:32:50.318Z,11.80
2018-12-14T15:35:18.474Z,11.67
2018-12-14T15:37:46.664Z,10.90
2018-12-14T15:40:14.787Z,10.97
2018-12-14T15:42:42.910Z,11.30
2018-12-14T15:45:13.210Z,11.37
2018-12-14T15:47:41.201Z,11.60
2018-12-14T15:50:09.454Z,11.83
2018-12-14T15:52:37.590Z,12.10
2018-12-14T15:55:05.972Z,12.07
2018-12-14T15:57:34.126Z,11.17
2018-12-14T16:00:02.248Z,11.63
2018-12-14T16:02:30.382Z,11.80
2018-12-14T16:04:58.521Z,12.17
2018-12-14T16:07:27.833Z,12.20
2018-12-14T16:09:55.947Z,11.80
2018-12-14T16:12:24.217Z,12.23
2018-12-14T16:14:52.342Z,12.80
2018-12-14T16:17:20.494Z,13.70
2018-12-14T16:19:48.665Z,12.10
2018-12-14T16:22:16.852Z,12.10
2018-12-14T16:24:44.975Z,13.07
2018-12-14T16:27:13.145Z,12.83
2018-12-14T16:29:41.257Z,14.27
2018-12-14T16:32:09.727Z,12.90
2018-12-14T16:34:38.753Z,12.63
2018-12-14T16:37:06.888Z,14.20
2018-12-14T16:39:35.126Z,13.27
2018-12-14T16:42:04.045Z,13.40
2018-12-14T16:44:32.151Z,13.03
2018-12-14T16:47:00.273Z,13.00
2018-12-14T16:49:28.429Z,13.83
2018-12-14T16:51:56.541Z,13.87
2018-12-14T16:54:24.701Z,14.00
2018-12-14T16:56:52.812Z,14.10
2018-12-14T16:59:20.979Z,12.70
2018-12-14T17:01:49.092Z,14.37
2018-12-14T17:04:17.228Z,12.67
2018-12-14T17:06:45.478Z,14.63
2018-12-14T17:09:13.647Z,14.70
2018-12-14T17:11:41.885Z,13.47
2018-12-14T17:14:10.051Z,14.00
2018-12-14T17:16:38.166Z,12.93
2018-12-14T17:19:06.284Z,14.17
2018-12-14T17:21:34.422Z,13.63
2018-12-14T17:24:02.554Z,13.40
2018-12-14T17:26:30.771Z,13.03
2018-12-14T17:28:58.886Z,14.00
2018-12-14T17:31:26.994Z,14.00
2018-12-14T17:33:55.159Z,13.20
2018-12-14T17:36:23.302Z,13.93
2018-12-14T17:38:51.441Z,12.70
2018-12-14T17:41:19.577Z,13.33
2018-12-14T17:43:47.745Z,13.93
2018-12-14T17:46:15.859Z,14.17
2018-12-14T17:48:44.048Z,14.63
2018-12-14T17:51:12.213Z,14.00
2018-12-14T17:53:40.360Z,14.53
2018-12-14T17:56:08.510Z,15.53
2018-12-14T17:58:36.674Z,14.73
2018-12-14T18:01:04.791Z,15.03
2018-12-14T18:03:32.967Z,14.73
2018-12-14T18:06:01.086Z,15.07
2018-12-14T18:08:29.218Z,14.63
2018-12-14T18:10:57.410Z,16.50
2018-12-14T18:13:25.549Z,16.03
2018-12-14T18:15:53.663Z,14.53
2018-12-14T18:18:21.793Z,15.10
2018-12-14T18:20:49.935Z,13.50
2018-12-14T18:23:18.047Z,15.07
2018-12-14T18:25:46.182Z,14.40
2018-12-14T18:28:14.388Z,14.27
2018-12-14T18:30:42.538Z,13.63
2018-12-14T18:33:10.821Z,13.50
2018-12-14T18:35:38.938Z,13.90
2018-12-14T18:38:07.097Z,14.33
2018-12-14T18:40:35.245Z,14.93
2018-12-14T18:43:03.430Z,13.50
2018-12-14T18:45:31.575Z,14.47
2018-12-14T18:47:59.713Z,14.50
2018-12-14T18:50:27.853Z,13.70
2018-12-14T18:52:55.986Z,13.80
2018-12-14T18:55:24.111Z,13.57
2018-12-14T18:57:52.245Z,14.20
2018-12-14T19:00:20.445Z,14.43
2018-12-14T19:02:48.553Z,14.23
2018-12-14T19:05:16.694Z,14.37
2018-12-14T19:07:44.826Z,13.77
2018-12-14T19:10:12.970Z,12.53
2018-12-14T19:12:41.211Z,13.67
2018-12-14T19:15:09.345Z,14.80
2018-12-14T19:17:37.477Z,13.43
2018-12-14T19:20:05.832Z,13.20
2018-12-14T19:22:33.946Z,12.60
2018-12-14T19:25:02.087Z,12.60
2018-12-14T19:27:30.226Z,13.57
2018-12-14T19:29:58.370Z,13.30
2018-12-14T19:32:26.554Z,12.90
2018-12-14T19:34:54.685Z,12.77
2018-12-14T19:37:22.855Z,13.03
2018-12-14T19:39:50.970Z,12.40
2018-12-14T19:42:19.083Z,12.77
2018-12-14T19:44:47.212Z,12.00
2018-12-14T19:47:15.445Z,12.67
2018-12-14T19:49:43.771Z,11.67
2018-12-14T19:52:12.187Z,12.43
2018-12-14T19:54:40.523Z,12.57
2018-12-14T19:57:13.204Z,13.37
2018-12-14T19:59:41.341Z,11.03
2018-12-14T20:02:09.528Z,12.30
2018-12-14T20:04:37.662Z,12.60
2018-12-14T20:07:05.785Z,12.87
2018-12-14T20:09:33.973Z,13.07
2018-12-14T20:12:04.571Z,12.07
2018-12-14T20:14:35.612Z,13.30
2018-12-14T20:17:05.335Z,13.93
2018-12-14T20:19:33.971Z,13.07
2018-12-14T20:22:05.227Z,13.30
2018-12-14T20:24:33.364Z,12.87
2018-12-14T20:27:01.478Z,13.57
2018-12-14T20:29:29.709Z,13.73
2018-12-14T20:31:57.828Z,13.03
2018-12-14T20:34:25.965Z,13.13
2018-12-14T20:36:54.146Z,13.03
2018-12-14T20:39:24.180Z,12.67
2018-12-14T20:41:52.805Z,13.33
2018-12-14T20:44:20.956Z,12.70
2018-12-14T20:46:49.112Z,13.13
2018-12-14T20:49:17.256Z,13.70
2018-12-14T20:51:45.399Z,13.10
2018-12-14T20:54:13.578Z,12.83
2018-12-14T20:56:41.727Z,14.67
2018-12-14T20:59:09.868Z,14.00
2018-12-14T21:01:37.996Z,13.73
2018-12-14T21:04:06.158Z,13.07
2018-12-14T21:06:34.327Z,14.30
2018-12-14T21:09:02.444Z,12.57
2018-12-14T21:11:30.583Z,11.60
2018-12-14T21:13:58.768Z,13.37
2018-12-14T21:16:26.898Z,12.27
2018-12-14T21:18:55.058Z,13.30
2018-12-14T21:21:23.190Z,13.17
2018-12-14T21:23:51.446Z,13.40
2018-12-14T21:26:19.548Z,13.53
2018-12-14T21:28:47.663Z,13.17
2018-12-14T21:31:15.897Z,13.77
2018-12-14T21:33:44.030Z,13.00
2018-12-14T21:36:12.153Z,12.40
2018-12-14T21:38:40.368Z,13.20
2018-12-14T21:41:08.506Z,13.27
2018-12-14T21:43:36.615Z,13.37
2018-12-14T21:46:04.754Z,13.80
2018-12-14T21:48:32.899Z,13.77
2018-12-14T21:51:01.038Z,14.03
2018-12-14T21:53:29.185Z,13.43
2018-12-14T21:55:57.318Z,14.50
2018-12-14T21:58:25.465Z,14.03
2018-12-14T22:00:53.604Z,13.57
2018-12-14T22:03:21.770Z,14.07
2018-12-14T22:05:49.913Z,13.80
2018-12-14T22:08:18.076Z,14.20
2018-12-14T22:10:46.218Z,12.47
2018-12-14T22:13:14.354Z,13.43
2018-12-14T22:15:42.489Z,14.17
2018-12-14T22:18:10.679Z,13.97
2018-12-14T22:20:38.832Z,13.67
2018-12-14T22:23:06.962Z,14.07
2018-12-14T22:25:35.134Z,13.47
2018-12-14T22:28:03.316Z,13.30
2018-12-14T22:30:31.474Z,14.00
2018-12-14T22:32:59.613Z,14.90
2018-12-14T22:35:27.774Z,13.37
2018-12-14T22:37:55.891Z,14.37
2018-12-14T22:40:24.124Z,15.97
2018-12-14T22:42:52.305Z,15.63
2018-12-14T22:45:20.464Z,14.37
2018-12-14T22:47:48.575Z,14.60
2018-12-14T22:50:16.849Z,14.60
2018-12-14T22:52:45.107Z,15.73
2018-12-14T22:55:13.218Z,14.53
2018-12-14T22:57:41.355Z,14.57
2018-12-14T23:00:11.929Z,15.57
2018-12-14T23:02:40.055Z,15.90
2018-12-14T23:05:08.164Z,14.33
2018-12-14T23:07:36.304Z,15.97
2018-12-14T23:10:05.340Z,16.50
2018-12-14T23:12:33.579Z,15.20
2018-12-14T23:15:01.718Z,16.27
2018-12-14T23:17:29.822Z,16.03
2018-12-14T23:19:57.989Z,16.33
2018-12-14T23:22:26.103Z,16.83
2018-12-14T23:24:54.268Z,16.17
2018-12-14T23:27:22.378Z,16.33
2018-12-14T23:29:50.514Z,15.30
2018-12-14T23:32:18.638Z,17.27
2018-12-14T23:34:46.800Z,16.07
2018-12-14T23:37:14.936Z,16.70
2018-12-14T23:39:43.080Z,16.07
2018-12-14T23:42:11.314Z,17.00
2018-12-14T23:44:39.456Z,15.60
2018-12-14T23:47:07.601Z,17.60
2018-12-14T23:49:35.713Z,16.80
2018-12-14T23:52:03.878Z,16.40
2018-12-14T23:54:31.998Z,16.80
2018-12-14T23:57:00.177Z,17.57
2018-12-14T23:59:28.289Z,17.27
